createdAt,value
2023-04-17T00:03:30.206Z,8.7
2023-04-17T00:08:26.691Z,8.7
2023-04-17T00:14:37.239Z,8.7
2023-04-17T00:19:33.796Z,8.64
2023-04-17T00:24:30.300Z,8.64
2023-04-17T00:29:26.840Z,8.7
2023-04-17T00:35:37.481Z,8.64
2023-04-17T00:40:34.129Z,8.64
2023-04-17T00:45:30.576Z,8.64
2023-04-17T00:50:27.237Z,8.64
2023-04-17T00:55:31.844Z,8.7
2023-04-17T01:00:28.363Z,8.7
2023-04-17T01:05:24.898Z,8.7
2023-04-17T01:11:35.564Z,8.7
2023-04-17T01:16:32.115Z,8.7
2023-04-17T01:21:28.619Z,8.7
2023-04-17T01:32:35.934Z,8.7
2023-04-17T01:37:32.486Z,8.7
2023-04-17T01:42:28.878Z,8.7
2023-04-17T01:44:57.138Z,8.7
2023-04-17T01:47:25.448Z,8.7
2023-04-17T01:53:36.465Z,8.64
2023-04-17T01:58:32.607Z,8.59
2023-04-17T02:03:29.324Z,8.64
2023-04-17T02:08:25.692Z,8.7
2023-04-17T02:14:36.358Z,8.64
2023-04-17T02:19:32.902Z,8.75
2023-04-17T02:29:26.033Z,8.7
2023-04-17T02:35:36.927Z,8.75
2023-04-17T02:40:33.151Z,8.7
2023-04-17T02:45:29.699Z,8.75
2023-04-17T02:56:36.964Z,8.64
2023-04-17T03:01:33.546Z,8.64
2023-04-17T03:06:29.968Z,8.59
2023-04-17T03:11:26.482Z,8.64
2023-04-17T03:17:37.243Z,8.64
2023-04-17T03:22:33.775Z,8.64
2023-04-17T03:27:30.552Z,8.7
2023-04-17T03:32:26.901Z,8.7
2023-04-17T03:38:37.444Z,8.81
2023-04-17T03:43:33.965Z,8.75
2023-04-17T03:48:30.511Z,8.81
2023-04-17T03:53:27.157Z,8.81
2023-04-17T03:59:37.793Z,8.81
2023-04-17T04:04:34.386Z,8.81
2023-04-17T04:09:30.728Z,8.75
2023-04-17T04:14:27.326Z,8.75
2023-04-17T04:20:38.013Z,8.75
2023-04-17T04:25:34.596Z,8.75
2023-04-17T04:30:31.007Z,8.7
2023-04-17T04:35:27.566Z,8.64
2023-04-17T04:41:38.259Z,8.7
2023-04-17T04:46:34.815Z,8.7
2023-04-17T04:51:31.237Z,8.7
2023-04-17T04:56:27.804Z,8.81
2023-04-17T05:01:24.446Z,8.75
2023-04-17T05:07:35.068Z,8.75
2023-04-17T05:12:31.534Z,8.64
2023-04-17T05:17:28.216Z,8.75
2023-04-17T05:23:38.766Z,8.81
2023-04-17T05:28:35.300Z,8.87
2023-04-17T05:33:31.798Z,8.81
2023-04-17T05:38:28.353Z,8.92
2023-04-17T05:43:24.843Z,8.98
2023-04-17T05:49:35.528Z,8.98
2023-04-17T05:54:32.052Z,9.15
2023-04-17T05:59:28.587Z,9.21
2023-04-17T06:10:35.790Z,9.1
2023-04-17T06:15:32.417Z,9.1
2023-04-17T06:20:28.872Z,9.1
2023-04-17T06:25:25.397Z,9.15
2023-04-17T06:31:36.233Z,9.1
2023-04-17T06:36:32.657Z,9.1
2023-04-17T06:41:29.125Z,9.15
2023-04-17T06:46:25.717Z,9.1
2023-04-17T06:52:36.443Z,9.1
2023-04-17T06:57:32.884Z,9.1
2023-04-17T07:02:29.499Z,9.15
2023-04-17T07:07:26.005Z,9.27
2023-04-17T07:13:36.668Z,9.45
2023-04-17T07:18:33.220Z,9.82
2023-04-17T07:23:29.642Z,10.13
2023-04-17T07:34:36.852Z,10.52
2023-04-17T07:39:33.464Z,10.39
2023-04-17T07:44:29.922Z,10.52
2023-04-17T07:49:26.564Z,10.46
2023-04-17T07:55:37.121Z,10.32
2023-04-17T08:00:33.813Z,10.52
2023-04-17T08:05:30.262Z,11.13
2023-04-17T08:10:26.808Z,11.91
2023-04-17T08:16:37.528Z,11.84
2023-04-17T08:21:33.940Z,11.62
2023-04-17T08:26:30.432Z,11.69
2023-04-17T08:31:27.115Z,11.91
2023-04-17T08:37:37.676Z,11.77
2023-04-17T08:42:34.193Z,11.55
2023-04-17T08:47:30.713Z,11.84
2023-04-17T08:52:27.289Z,12.06
2023-04-17T08:58:37.928Z,12.44
2023-04-17T09:03:34.604Z,12.17
2023-04-17T09:08:31.001Z,11.02
2023-04-17T09:13:27.533Z,11.15
2023-04-17T09:19:38.221Z,11.58
2023-04-17T09:24:34.780Z,10.45
2023-04-17T09:29:31.254Z,10.26
2023-04-17T09:34:27.869Z,9.3
2023-04-17T09:39:24.481Z,8.86
2023-04-17T09:45:35.063Z,9.28
2023-04-17T09:50:31.522Z,9.45
2023-04-17T09:55:28.103Z,9.12
2023-04-17T10:00:24.594Z,8.98
2023-04-17T10:06:35.339Z,9.07
2023-04-17T10:11:31.831Z,8.8
2023-04-17T10:16:28.486Z,8.67
2023-04-17T10:21:24.862Z,8.52
2023-04-17T10:27:35.563Z,8.45
2023-04-17T10:32:32.178Z,8.24
2023-04-17T10:37:28.594Z,7.91
2023-04-17T10:42:25.112Z,7.78
2023-04-17T10:48:35.801Z,7.92
2023-04-17T10:53:32.331Z,7.82
2023-04-17T10:58:31.463Z,7.93
2023-04-17T11:03:25.448Z,8.16
2023-04-17T11:09:36.069Z,7.93
2023-04-17T11:14:32.634Z,7.55
2023-04-17T11:19:29.143Z,7.89
2023-04-17T11:24:25.686Z,7.89
2023-04-17T11:30:36.308Z,7.74
2023-04-17T11:35:32.864Z,7.88
2023-04-17T11:40:29.382Z,7.59
2023-04-17T11:45:25.923Z,7.73
2023-04-17T11:51:36.576Z,8.1
2023-04-17T11:56:33.130Z,7.8
2023-04-17T12:01:29.683Z,7.87
2023-04-17T12:12:36.866Z,7.4
2023-04-17T12:17:33.466Z,7.25
2023-04-17T12:22:29.946Z,7.28
2023-04-17T12:27:26.580Z,7.09
2023-04-17T12:33:37.225Z,7.54
2023-04-17T12:38:33.785Z,7.62
2023-04-17T12:43:30.196Z,7.39
2023-04-17T12:48:26.755Z,6.78
2023-04-17T12:54:37.481Z,6.75
2023-04-17T12:59:33.997Z,7.33
2023-04-17T13:04:30.620Z,7.19
2023-04-17T13:09:27.098Z,6.43
2023-04-17T13:15:37.796Z,6.58
2023-04-17T13:19:28.306Z,6.77
2023-04-17T13:24:24.816Z,6.53
2023-04-17T13:30:35.555Z,6.53
2023-04-17T13:35:32.052Z,6.6
2023-04-17T13:40:28.514Z,7.05
2023-04-17T13:45:25.092Z,6.84
2023-04-17T13:51:35.751Z,6.92
2023-04-17T13:56:32.252Z,6.61
2023-04-17T14:01:28.801Z,6.49
2023-04-17T14:06:25.332Z,6.18
2023-04-17T14:12:36.087Z,6.06
2023-04-17T14:17:32.614Z,6.42
2023-04-17T14:22:29.360Z,6.27
2023-04-17T14:27:25.595Z,6.29
2023-04-17T14:33:36.329Z,6.21
2023-04-17T14:38:32.908Z,6.36
2023-04-17T14:43:29.347Z,6.41
2023-04-17T14:48:25.868Z,6.51
2023-04-17T14:54:36.603Z,6.64
2023-04-17T14:59:33.137Z,6.65
2023-04-17T15:04:29.644Z,6.63
2023-04-17T15:09:26.148Z,6.49
2023-04-17T15:15:36.801Z,6.5
2023-04-17T15:20:35.232Z,6.61
2023-04-17T15:25:29.855Z,6.51
2023-04-17T15:30:26.458Z,6.62
2023-04-17T15:36:37.162Z,7.03
2023-04-17T15:41:33.581Z,6.96
2023-04-17T15:46:31.988Z,6.58
2023-04-17T15:51:26.668Z,6.36
2023-04-17T15:57:37.349Z,6.22
2023-04-17T16:02:34.120Z,6.35
2023-04-17T16:07:30.372Z,6.18
2023-04-17T16:12:26.937Z,7.07
2023-04-17T16:18:37.588Z,8.22
2023-04-17T16:23:34.204Z,6.73
2023-04-17T16:28:30.624Z,6.28
2023-04-17T16:33:27.277Z,5.94
2023-04-17T16:39:37.865Z,5.76
2023-04-17T16:44:34.422Z,5.64
2023-04-17T16:49:30.928Z,5.63
2023-04-17T16:54:27.529Z,5.64
2023-04-17T16:59:24.207Z,5.68
2023-04-17T17:05:34.750Z,5.71
2023-04-17T17:10:31.171Z,5.81
2023-04-17T17:15:27.749Z,5.74
2023-04-17T17:21:38.443Z,5.79
2023-04-17T17:26:34.940Z,5.92
2023-04-17T17:31:31.470Z,5.91
2023-04-17T17:36:28.082Z,5.88
2023-04-17T17:41:24.503Z,5.93
2023-04-17T17:47:35.245Z,5.96
2023-04-17T17:52:31.705Z,5.83
2023-04-17T17:57:35.711Z,5.83
2023-04-17T18:02:24.921Z,5.98
2023-04-17T18:08:35.454Z,6
2023-04-17T18:18:28.516Z,5.97
2023-04-17T18:23:25.037Z,6.32
2023-04-17T18:29:35.809Z,6.25
2023-04-17T18:34:32.437Z,6.57
2023-04-17T18:39:28.802Z,6.32
2023-04-17T18:44:25.325Z,6.44
2023-04-17T18:50:36.056Z,6.52
2023-04-17T18:55:32.523Z,6.7
2023-04-17T19:00:29.090Z,6.77
2023-04-17T19:05:25.606Z,6.91
2023-04-17T19:11:36.288Z,6.86
2023-04-17T19:16:32.901Z,6.76
2023-04-17T19:20:15.268Z,6.94
2023-04-17T19:21:29.392Z,6.99
2023-04-17T19:26:25.885Z,7.25
2023-04-17T19:32:36.532Z,7.3
2023-04-17T19:37:33.090Z,7.43
2023-04-17T19:42:29.582Z,7.76
2023-04-17T19:47:26.147Z,7.59
2023-04-17T19:53:37.338Z,7.45
2023-04-17T19:58:33.494Z,7.32
2023-04-17T20:03:30.226Z,7.66
2023-04-17T20:08:26.450Z,7.51
2023-04-17T20:14:37.141Z,7.33
2023-04-17T20:19:33.643Z,7.8
2023-04-17T20:24:30.160Z,7.63
2023-04-17T20:29:26.774Z,7.23
2023-04-17T20:35:37.364Z,7.31
2023-04-17T20:40:33.910Z,7.14
2023-04-17T20:45:30.359Z,6.96
2023-04-17T20:50:26.998Z,7.15
2023-04-17T20:56:37.694Z,7.09
2023-04-17T21:01:34.133Z,7.22
2023-04-17T21:06:30.627Z,7.34
2023-04-17T21:11:27.222Z,7.43
2023-04-17T21:17:37.934Z,7.64
2023-04-17T21:22:34.482Z,7.56
2023-04-17T21:27:30.887Z,7.36
2023-04-17T21:32:27.578Z,7.33
2023-04-17T21:37:24.146Z,7.41
2023-04-17T21:43:34.726Z,7.41
2023-04-17T21:48:31.179Z,7.38
2023-04-17T21:53:27.747Z,7.32
2023-04-17T21:58:24.447Z,7.37
2023-04-17T22:04:35.009Z,7.33
2023-04-17T22:09:31.429Z,7.28
2023-04-17T22:14:28.052Z,7.3
2023-04-17T22:20:38.734Z,7.45
2023-04-17T22:25:35.189Z,7.35
2023-04-17T22:30:31.715Z,7.29
2023-04-17T22:35:28.273Z,7.47
2023-04-17T22:40:24.764Z,7.59
2023-04-17T22:46:35.450Z,7.62
2023-04-17T22:56:28.543Z,7.69
2023-04-17T23:01:25.033Z,7.75
2023-04-17T23:07:35.769Z,7.79
2023-04-17T23:12:32.249Z,7.83
2023-04-17T23:17:28.965Z,8.01
2023-04-17T23:28:35.974Z,8.26
2023-04-17T23:33:32.505Z,8.19
2023-04-17T23:38:29.108Z,8.31
2023-04-17T23:43:25.554Z,8.31
2023-04-17T23:49:36.230Z,8.15
2023-04-17T23:54:32.792Z,8.1
2023-04-17T23:59:29.344Z,7.95
